Terminal Aerodrome Forecast
Issued by NWS

Home | Current Version | Previous Version | Text Only | Print | Product List | Glossary On
Versions: 1 2 3 4 5 6 7 8 9 10 11 12 13 14 15 16 17 18 19 20 21 22 23 24 25 26 27
000
FTUS43 KDTX 190527
TAFPTK
TAF
KPTK 190527Z 1906/2006 04009KT 3SM -SN OVC025
     FM190800 05014KT 1 1/2SM -SN BR OVC015
     FM191200 05014KT 2SM -SN BR OVC012
     FM191500 04015KT 1SM -SN BR OVC008
     FM191800 03015G24KT 5SM -SN BR BKN015 OVC025
     FM192100 02014G24KT P6SM SCT015 OVC030
     FM200200 35016G26KT P6SM BKN035=

USA.gov is the U.S. government's official web portal to all federal, state and local government web resources and services.